Time;durP1;ratioP1;P1;durP2;ratioP2;P2;SDS_P1;SDS_P2;PMS_P1;PMS_P2;Temp;Humidity;BMP_temperature;BMP_pressure;BME280_temperature;BME280_humidity;BME280_pressure;Samples;Min_cycle;Max_cycle;Signal;HPM_P1;HPM_P2
2022/11/17 00:00:44;;;;;;;0.77;0.77;;;11.80;99.90;;;;;;4994130;28;20195;-67
2022/11/17 00:03:14;;;;;;;0.60;0.60;;;11.80;99.90;;;;;;4993775;28;20167;-68
2022/11/17 00:05:40;;;;;;;2.50;0.90;;;11.80;99.90;;;;;;4992963;28;20246;-68
2022/11/17 00:08:05;;;;;;;1.10;0.80;;;11.90;99.90;;;;;;4994176;28;20175;-67
2022/11/17 00:10:31;;;;;;;1.60;0.77;;;11.90;99.90;;;;;;4993748;28;20213;-69
2022/11/17 00:15:44;;;;;;;0.70;0.70;;;12.00;99.90;;;;;;4994226;28;20178;-68
2022/11/17 00:23:48;;;;;;;1.63;0.87;;;11.90;99.90;;;;;;4994011;28;20173;-68
2022/11/17 00:26:31;;;;;;;2.87;1.10;;;11.90;99.90;;;;;;4993835;28;20257;-68
2022/11/17 00:29:05;;;;;;;2.97;0.80;;;12.00;99.90;;;;;;4994079;28;20237;-67
2022/11/17 00:34:19;;;;;;;5.83;1.40;;;12.00;99.90;;;;;;4993948;28;20217;-69
2022/11/17 00:36:53;;;;;;;5.70;1.60;;;12.00;99.90;;;;;;4992211;28;20759;-68
2022/11/17 00:39:21;;;;;;;8.50;2.50;;;12.10;99.90;;;;;;4993377;28;20673;-68
2022/11/17 00:41:47;;;;;;;6.93;1.80;;;12.10;99.90;;;;;;4993926;28;20175;-67
2022/11/17 00:44:14;;;;;;;8.43;2.47;;;12.20;99.90;;;;;;4992537;28;20179;-68
2022/11/17 00:46:40;;;;;;;6.33;1.70;;;12.20;99.90;;;;;;4993759;28;20611;-68
2022/11/17 00:49:07;;;;;;;4.57;1.90;;;12.20;99.90;;;;;;4993733;28;20202;-68
2022/11/17 00:51:33;;;;;;;5.10;1.17;;;12.30;99.90;;;;;;4993630;28;20671;-69
2022/11/17 00:53:59;;;;;;;14.43;1.93;;;12.20;99.90;;;;;;4993255;28;20171;-68
2022/11/17 00:56:26;;;;;;;5.97;1.30;;;12.30;99.90;;;;;;4992256;28;20512;-69
2022/11/17 00:58:52;;;;;;;2.63;1.23;;;12.40;99.90;;;;;;4993646;28;20167;-68
2022/11/17 01:01:24;;;;;;;4.33;1.67;;;12.40;99.90;;;;;;4993532;28;20258;-68
2022/11/17 01:03:50;;;;;;;4.80;1.30;;;12.40;99.90;;;;;;4993571;28;20229;-68
2022/11/17 01:06:18;;;;;;;6.83;1.43;;;12.40;99.90;;;;;;4993400;28;20556;-69
2022/11/17 01:08:44;;;;;;;5.43;1.87;;;12.50;99.90;;;;;;4993360;28;20213;-68
2022/11/17 01:11:13;;;;;;;5.77;1.70;;;12.50;99.90;;;;;;4993517;28;20297;-69
2022/11/17 01:13:39;;;;;;;4.83;1.70;;;12.50;99.90;;;;;;4995811;28;20182;-68
2022/11/17 01:16:16;;;;;;;6.40;1.90;;;12.60;99.90;;;;;;4997411;28;20206;-67
2022/11/17 01:18:44;;;;;;;5.07;1.93;;;12.60;99.90;;;;;;4997195;28;20179;-68
2022/11/17 01:21:12;;;;;;;6.53;1.53;;;12.50;99.90;;;;;;4997392;28;20182;-69
2022/11/17 01:23:39;;;;;;;5.57;1.50;;;12.50;99.90;;;;;;4996950;28;20171;-69
2022/11/17 01:26:08;;;;;;;5.23;1.73;;;12.50;99.90;;;;;;4997165;28;20175;-68
2022/11/17 01:28:34;;;;;;;6.27;1.70;;;12.50;99.90;;;;;;4997138;28;20190;-68
2022/11/17 01:31:06;;;;;;;4.43;1.70;;;12.50;99.90;;;;;;4997161;28;20211;-68
2022/11/17 01:33:32;;;;;;;3.30;1.47;;;12.50;99.90;;;;;;4996946;28;20187;-68
2022/11/17 01:36:06;;;;;;;6.13;1.67;;;12.40;99.90;;;;;;4996881;28;20242;-68
2022/11/17 01:38:32;;;;;;;6.63;2.07;;;12.40;99.90;;;;;;4996725;28;20181;-68
2022/11/17 01:41:00;;;;;;;6.17;1.90;;;12.40;99.90;;;;;;4996784;28;20186;-68
2022/11/17 01:43:40;;;;;;;3.87;1.83;;;12.30;99.90;;;;;;4997029;28;20168;-68
2022/11/17 01:46:14;;;;;;;8.93;1.90;;;12.30;99.90;;;;;;4996913;28;20686;-68
2022/11/17 01:48:42;;;;;;;7.43;1.77;;;12.20;99.90;;;;;;4996757;28;20250;-68
2022/11/17 01:51:10;;;;;;;9.63;2.10;;;12.30;99.90;;;;;;4996599;28;20789;-68
2022/11/17 01:53:38;;;;;;;8.37;2.07;;;12.20;99.90;;;;;;4996461;28;20183;-67
2022/11/17 01:56:08;;;;;;;4.60;1.73;;;12.30;99.90;;;;;;4996497;28;20194;-68
2022/11/17 01:58:39;;;;;;;6.93;1.80;;;12.20;99.90;;;;;;4996588;28;20175;-67
2022/11/17 02:01:05;;;;;;;10.37;2.40;;;12.30;99.90;;;;;;4996683;28;20262;-68
2022/11/17 02:03:33;;;;;;;8.33;1.93;;;12.30;99.90;;;;;;4996325;28;20213;-68
2022/11/17 02:06:34;;;;;;;9.33;2.00;;;12.20;99.90;;;;;;4996146;28;20202;-70
2022/11/17 02:09:01;;;;;;;9.63;2.30;;;12.10;99.90;;;;;;4995297;28;20188;-69
2022/11/17 02:11:34;;;;;;;7.63;2.00;;;12.10;99.90;;;;;;4996402;28;20265;-68
2022/11/17 02:14:01;;;;;;;11.53;2.17;;;12.10;99.90;;;;;;4996127;28;20175;-68
2022/11/17 02:16:27;;;;;;;4.97;2.00;;;12.00;99.90;;;;;;4996207;28;20183;-68
2022/11/17 02:18:53;;;;;;;9.80;1.90;;;12.00;99.90;;;;;;4996303;28;20175;-68
2022/11/17 02:21:46;;;;;;;9.53;2.00;;;12.10;99.90;;;;;;4996059;28;20670;-67
2022/11/17 02:24:36;;;;;;;7.70;2.07;;;12.00;99.90;;;;;;4995434;28;20179;-68
2022/11/17 02:27:17;;;;;;;5.70;2.07;;;12.10;99.90;;;;;;4996034;28;20278;-67
2022/11/17 02:30:03;;;;;;;5.63;1.70;;;12.10;99.90;;;;;;4995843;28;20175;-67
2022/11/17 02:32:35;;;;;;;3.57;1.47;;;12.10;99.90;;;;;;4994659;28;20218;-68
2022/11/17 02:35:15;;;;;;;4.63;1.60;;;12.10;99.90;;;;;;4995805;28;20172;-67
2022/11/17 02:38:16;;;;;;;4.60;1.53;;;12.10;99.90;;;;;;4995868;28;20195;-67
2022/11/17 02:40:50;;;;;;;6.43;1.97;;;12.20;99.90;;;;;;4995650;28;20182;-67
2022/11/17 02:46:14;;;;;;;9.70;2.17;;;12.10;99.90;;;;;;4995791;28;20240;-67
2022/11/17 02:48:46;;;;;;;4.13;1.70;;;12.00;99.90;;;;;;4994287;28;20565;-68
2022/11/17 02:51:21;;;;;;;7.23;1.70;;;12.00;99.90;;;;;;4995414;28;20659;-68
2022/11/17 02:53:53;;;;;;;5.80;1.73;;;11.90;99.90;;;;;;4995645;28;20186;-68
2022/11/17 02:56:18;;;;;;;5.40;1.87;;;11.90;99.90;;;;;;4995750;28;20282;-67
2022/11/17 02:58:48;;;;;;;6.20;1.97;;;11.90;99.90;;;;;;4994197;28;20277;-68
2022/11/17 03:01:23;;;;;;;5.27;1.87;;;11.90;99.90;;;;;;4995403;28;20171;-68
2022/11/17 03:04:09;;;;;;;6.30;1.67;;;11.80;99.90;;;;;;4995290;28;20178;-67
2022/11/17 03:07:08;;;;;;;9.60;2.00;;;11.80;99.90;;;;;;4995049;28;20230;-68
2022/11/17 03:09:42;;;;;;;8.83;2.30;;;11.80;99.90;;;;;;4994146;28;20182;-67
2022/11/17 03:12:17;;;;;;;9.10;1.87;;;11.70;99.90;;;;;;4995631;28;20206;-68
2022/11/17 03:14:57;;;;;;;6.73;2.17;;;11.70;99.90;;;;;;4994834;28;20170;-67
2022/11/17 03:17:34;;;;;;;7.43;2.20;;;11.70;99.90;;;;;;4995451;28;20173;-68
2022/11/17 03:20:10;;;;;;;7.97;1.80;;;11.70;99.90;;;;;;4994777;28;20175;-68
2022/11/17 03:23:01;;;;;;;7.40;2.23;;;11.70;99.90;;;;;;4995104;28;20174;-68
2022/11/17 03:25:34;;;;;;;6.47;1.67;;;11.70;99.90;;;;;;4991831;28;20180;-68
2022/11/17 03:28:07;;;;;;;5.80;1.83;;;11.70;99.90;;;;;;4994973;28;20207;-68
2022/11/17 03:30:40;;;;;;;9.13;1.73;;;11.80;99.90;;;;;;4994689;28;20682;-68
2022/11/17 03:33:14;;;;;;;4.77;1.77;;;11.80;99.90;;;;;;4994759;28;20250;-69
2022/11/17 03:35:47;;;;;;;8.23;1.83;;;11.80;99.90;;;;;;4994168;28;20227;-68
2022/11/17 03:38:15;;;;;;;4.37;2.03;;;11.80;99.90;;;;;;4994423;28;20174;-68
2022/11/17 03:40:53;;;;;;;8.63;2.00;;;11.80;99.90;;;;;;4994235;28;20167;-67
2022/11/17 03:43:20;;;;;;;6.20;1.93;;;11.80;99.90;;;;;;4994599;28;20186;-68
2022/11/17 03:45:49;;;;;;;8.67;1.93;;;11.90;99.90;;;;;;4994511;28;20163;-69
2022/11/17 03:48:27;;;;;;;7.97;1.80;;;11.80;99.90;;;;;;4994417;28;20180;-68
2022/11/17 03:51:03;;;;;;;7.87;1.70;;;11.80;99.90;;;;;;4994504;28;20584;-68
2022/11/17 03:53:33;;;;;;;6.70;2.30;;;11.80;99.90;;;;;;4993139;28;20187;-67
2022/11/17 03:56:26;;;;;;;5.97;1.97;;;11.90;99.90;;;;;;4994281;28;20202;-69
2022/11/17 03:58:59;;;;;;;8.40;1.80;;;11.90;99.90;;;;;;4994391;28;20210;-68
2022/11/17 04:01:27;;;;;;;9.03;2.00;;;11.90;99.90;;;;;;4994620;28;20179;-69
2022/11/17 04:03:52;;;;;;;6.23;2.20;;;11.90;99.90;;;;;;4993699;28;20217;-67
2022/11/17 04:06:18;;;;;;;5.77;2.00;;;11.90;99.90;;;;;;4994121;28;20670;-68
2022/11/17 04:08:44;;;;;;;12.97;2.10;;;11.90;99.90;;;;;;4992897;28;20195;-68
2022/11/17 04:16:37;;;;;;;6.23;1.80;;;11.90;99.90;;;;;;4994100;28;20274;-68
2022/11/17 04:19:03;;;;;;;6.30;1.70;;;11.90;99.90;;;;;;4993118;28;20262;-66
2022/11/17 04:21:28;;;;;;;5.87;1.77;;;11.90;99.90;;;;;;4992510;28;20658;-68
2022/11/17 04:23:56;;;;;;;6.10;1.87;;;11.90;99.90;;;;;;4993395;28;20171;-67
2022/11/17 04:29:09;;;;;;;5.93;1.90;;;12.00;99.90;;;;;;4993857;28;20259;-68
2022/11/17 04:31:35;;;;;;;5.37;2.20;;;12.00;99.90;;;;;;4993353;28;20235;-67
2022/11/17 04:34:05;;;;;;;5.63;1.63;;;11.90;99.90;;;;;;4993710;28;20253;-68
2022/11/17 04:36:38;;;;;;;4.13;1.90;;;12.00;99.90;;;;;;4993206;28;20227;-68
2022/11/17 04:39:04;;;;;;;6.30;1.87;;;11.90;99.90;;;;;;4993616;28;20172;-67
2022/11/17 04:44:16;;;;;;;3.73;1.70;;;12.00;99.90;;;;;;4993599;28;20181;-67
2022/11/17 04:46:44;;;;;;;5.93;1.80;;;12.00;99.90;;;;;;4993303;28;20171;-69
2022/11/17 04:49:10;;;;;;;5.33;1.60;;;12.10;99.90;;;;;;4996735;28;20171;-67
2022/11/17 04:51:36;;;;;;;3.43;1.13;;;12.00;99.90;;;;;;4997193;28;20238;-67
2022/11/17 04:54:03;;;;;;;4.57;1.73;;;12.00;99.90;;;;;;4997198;28;20174;-68
2022/11/17 04:56:29;;;;;;;4.90;1.60;;;11.90;99.90;;;;;;4997568;28;20237;-68
2022/11/17 04:58:55;;;;;;;2.93;1.00;;;11.80;99.90;;;;;;4996835;28;20171;-68
2022/11/17 05:01:22;;;;;;;3.63;1.53;;;11.70;99.90;;;;;;4996975;28;20183;-68
2022/11/17 05:03:50;;;;;;;0.73;0.60;;;11.60;99.90;;;;;;4997117;28;20211;-68
2022/11/17 05:06:25;;;;;;;3.17;1.20;;;11.50;99.90;;;;;;4997242;28;20198;-68
2022/11/17 05:08:54;;;;;;;3.37;1.20;;;11.40;99.90;;;;;;4997182;28;20182;-69
2022/11/17 05:14:06;;;;;;;1.90;0.90;;;11.20;99.90;;;;;;4997500;28;20182;-68
2022/11/17 05:19:24;;;;;;;5.00;1.43;;;11.10;99.90;;;;;;4997170;28;20237;-68
2022/11/17 05:21:50;;;;;;;2.83;1.00;;;11.10;99.90;;;;;;4997240;28;20231;-69
2022/11/17 05:24:16;;;;;;;4.30;1.20;;;11.10;99.90;;;;;;4996989;28;20488;-69
2022/11/17 05:26:50;;;;;;;4.00;1.20;;;11.10;99.90;;;;;;4996551;28;20253;-70
2022/11/17 05:29:20;;;;;;;3.47;1.07;;;11.00;99.90;;;;;;4996852;28;20854;-69
2022/11/17 05:31:47;;;;;;;5.47;0.87;;;11.00;99.90;;;;;;4996934;28;20210;-67
2022/11/17 05:34:14;;;;;;;2.47;1.10;;;11.00;99.90;;;;;;4996540;28;20231;-68
2022/11/17 05:36:40;;;;;;;1.93;0.80;;;11.00;99.90;;;;;;4996066;28;20301;-69
2022/11/17 05:39:09;;;;;;;1.93;0.80;;;11.00;99.90;;;;;;4996673;28;20211;-68
2022/11/17 05:41:38;;;;;;;4.93;1.10;;;11.00;99.90;;;;;;4996311;28;20175;-69
2022/11/17 05:44:04;;;;;;;2.10;1.00;;;11.00;99.90;;;;;;4994998;28;20183;-68
2022/11/17 05:46:29;;;;;;;3.03;0.93;;;11.00;99.90;;;;;;4996088;28;20182;-69
2022/11/17 05:48:55;;;;;;;3.23;0.70;;;11.00;99.90;;;;;;4996532;28;20175;-69
2022/11/17 05:51:22;;;;;;;2.67;0.83;;;11.00;99.90;;;;;;4995615;28;20218;-70
2022/11/17 05:53:52;;;;;;;3.93;1.10;;;11.00;99.90;;;;;;4995876;28;20258;-68
2022/11/17 05:56:23;;;;;;;3.30;1.23;;;11.10;99.90;;;;;;4996296;28;20228;-69
2022/11/17 05:58:53;;;;;;;3.83;0.80;;;11.00;99.90;;;;;;4993674;28;20341;-69
2022/11/17 06:01:20;;;;;;;3.17;0.90;;;11.00;99.90;;;;;;4995883;28;20178;-69
2022/11/17 06:03:52;;;;;;;1.60;0.90;;;11.00;99.90;;;;;;4994896;28;20175;-69
2022/11/17 06:06:18;;;;;;;1.40;1.20;;;11.00;99.90;;;;;;4995554;28;20199;-68
2022/11/17 06:08:44;;;;;;;4.77;1.10;;;11.00;99.90;;;;;;4995778;28;20175;-69
2022/11/17 06:11:09;;;;;;;2.53;0.97;;;11.00;99.90;;;;;;4995450;28;20678;-70
2022/11/17 06:13:41;;;;;;;2.50;1.30;;;11.00;99.90;;;;;;4995393;28;20175;-69
2022/11/17 06:16:11;;;;;;;2.40;1.00;;;11.00;99.90;;;;;;4995051;28;20203;-70
2022/11/17 06:18:42;;;;;;;3.63;1.23;;;11.00;99.90;;;;;;4995053;28;20171;-68
2022/11/17 06:21:09;;;;;;;1.40;0.90;;;11.00;99.90;;;;;;4995639;28;20164;-69
2022/11/17 06:23:35;;;;;;;1.10;0.90;;;11.00;99.90;;;;;;4993515;28;20203;-68
2022/11/17 06:26:09;;;;;;;3.50;1.23;;;10.90;99.90;;;;;;4995127;28;20198;-69
2022/11/17 06:28:48;;;;;;;2.87;0.83;;;10.90;99.90;;;;;;4994069;28;20286;-68
2022/11/17 06:31:15;;;;;;;3.53;1.30;;;10.90;99.90;;;;;;4993922;28;20575;-68
2022/11/17 06:33:41;;;;;;;2.53;1.30;;;10.90;99.90;;;;;;4994594;28;20167;-69
2022/11/17 06:36:07;;;;;;;4.50;1.43;;;10.90;99.90;;;;;;4994284;28;20223;-68
2022/11/17 06:38:34;;;;;;;5.73;1.17;;;10.90;99.90;;;;;;4994632;28;20253;-69
2022/11/17 06:41:01;;;;;;;1.63;0.97;;;11.00;99.90;;;;;;4994461;28;20691;-69
2022/11/17 06:43:27;;;;;;;1.73;1.10;;;11.00;99.90;;;;;;4994291;28;20254;-69
2022/11/17 06:45:52;;;;;;;2.03;1.20;;;11.00;99.90;;;;;;4994620;28;20259;-68
2022/11/17 06:48:25;;;;;;;2.47;1.20;;;11.10;99.90;;;;;;4994758;28;20654;-69
2022/11/17 06:50:52;;;;;;;2.17;1.33;;;11.10;99.90;;;;;;4992940;28;20567;-68
2022/11/17 06:53:18;;;;;;;2.07;0.93;;;11.10;99.90;;;;;;4992827;28;20175;-68
2022/11/17 06:55:47;;;;;;;4.87;1.00;;;11.10;99.90;;;;;;4994570;28;20174;-69
2022/11/17 06:58:16;;;;;;;2.60;0.90;;;11.00;99.90;;;;;;4994132;28;20171;-69
2022/11/17 07:00:41;;;;;;;2.13;0.80;;;11.10;99.90;;;;;;4993836;28;20179;-69
2022/11/17 07:03:08;;;;;;;1.93;0.93;;;11.00;99.90;;;;;;4993777;28;20178;-68
2022/11/17 07:05:36;;;;;;;1.83;0.90;;;11.10;99.90;;;;;;4993447;28;20682;-69
2022/11/17 07:08:05;;;;;;;3.47;1.10;;;11.00;99.90;;;;;;4993924;28;20318;-69
2022/11/17 07:10:33;;;;;;;4.10;1.10;;;11.10;99.90;;;;;;4978063;28;20245;-67
2022/11/17 07:12:59;;;;;;;8.23;1.10;;;11.10;99.90;;;;;;4979314;28;20261;-68
2022/11/17 07:15:25;;;;;;;3.27;0.80;;;11.10;99.90;;;;;;4983228;28;20263;-69
2022/11/17 07:17:53;;;;;;;2.00;0.93;;;11.10;99.90;;;;;;4992652;28;20245;-69
2022/11/17 07:20:19;;;;;;;3.77;0.83;;;11.20;99.90;;;;;;5003452;28;20179;-69
2022/11/17 07:22:45;;;;;;;4.73;1.00;;;11.20;99.90;;;;;;5006157;28;20186;-70
2022/11/17 07:25:11;;;;;;;2.17;1.00;;;11.20;99.90;;;;;;4995078;28;20198;-69
2022/11/17 07:27:36;;;;;;;4.43;1.17;;;11.20;99.90;;;;;;4988617;28;20213;-69
2022/11/17 07:30:06;;;;;;;1.47;1.00;;;11.20;99.90;;;;;;5002139;28;20175;-68
2022/11/17 07:32:32;;;;;;;2.57;0.90;;;11.20;99.90;;;;;;4983404;28;20309;-69
2022/11/17 07:35:00;;;;;;;4.77;1.10;;;11.10;99.90;;;;;;5006834;28;20186;-68
2022/11/17 07:37:26;;;;;;;1.97;0.97;;;11.10;99.90;;;;;;4996668;28;20285;-67
2022/11/17 07:39:52;;;;;;;6.67;1.10;;;11.10;99.90;;;;;;5005941;28;20667;-67
2022/11/17 07:42:17;;;;;;;4.03;1.00;;;11.10;99.90;;;;;;5000697;28;20269;-69
2022/11/17 07:44:46;;;;;;;2.03;1.10;;;11.10;99.90;;;;;;5002641;28;20548;-67
2022/11/17 07:47:11;;;;;;;1.57;1.10;;;11.10;99.90;;;;;;4994902;28;20692;-66
2022/11/17 07:49:39;;;;;;;1.73;0.80;;;11.10;99.90;;;;;;5007727;28;20254;-67
2022/11/17 07:52:05;;;;;;;3.70;1.33;;;11.10;99.90;;;;;;4999944;28;20202;-67
2022/11/17 07:54:31;;;;;;;5.63;1.37;;;11.10;99.90;;;;;;5000760;28;20177;-66
2022/11/17 07:56:56;;;;;;;2.07;1.00;;;11.10;99.90;;;;;;5007932;28;20182;-66
2022/11/17 07:59:22;;;;;;;1.30;0.80;;;11.10;99.90;;;;;;4995982;28;20928;-67
2022/11/17 08:01:48;;;;;;;3.43;0.90;;;11.10;99.90;;;;;;5004225;28;20235;-68
2022/11/17 08:04:13;;;;;;;3.50;1.00;;;11.10;99.90;;;;;;4996920;28;20198;-68
2022/11/17 08:06:39;;;;;;;3.83;1.23;;;11.20;99.90;;;;;;4993439;28;20245;-67
2022/11/17 08:09:06;;;;;;;2.70;0.70;;;11.20;99.90;;;;;;5007331;28;20265;-67
2022/11/17 08:11:31;;;;;;;4.80;0.97;;;11.20;99.90;;;;;;4995054;28;20197;-67
2022/11/17 08:13:57;;;;;;;3.20;1.00;;;11.30;99.90;;;;;;5005187;28;20175;-67
2022/11/17 08:16:29;;;;;;;3.13;1.20;;;11.30;99.90;;;;;;5002359;28;20179;-68
2022/11/17 08:18:58;;;;;;;5.17;1.30;;;11.30;99.90;;;;;;4997295;28;20176;-68
2022/11/17 08:21:24;;;;;;;4.63;1.10;;;11.30;99.90;;;;;;5008365;28;20174;-68
2022/11/17 08:23:54;;;;;;;4.13;0.90;;;11.40;99.90;;;;;;4992151;28;20261;-67
2022/11/17 08:26:20;;;;;;;5.93;1.20;;;11.40;99.90;;;;;;5002395;28;20610;-69
2022/11/17 08:28:46;;;;;;;3.13;1.20;;;11.30;99.90;;;;;;4986276;28;20199;-66
2022/11/17 08:31:12;;;;;;;2.57;1.20;;;11.30;99.90;;;;;;4991341;28;20211;-69
2022/11/17 08:33:38;;;;;;;2.00;1.00;;;11.40;99.90;;;;;;5006387;28;20186;-68
2022/11/17 08:36:06;;;;;;;4.27;1.30;;;11.40;99.90;;;;;;5002741;28;20235;-68
2022/11/17 08:38:31;;;;;;;5.10;1.13;;;11.40;99.90;;;;;;4988937;28;20229;-67
2022/11/17 08:41:00;;;;;;;2.53;1.30;;;11.50;99.90;;;;;;5006863;28;20182;-68
2022/11/17 08:43:26;;;;;;;2.07;1.07;;;11.50;99.90;;;;;;4988218;28;20176;-68
2022/11/17 08:45:52;;;;;;;5.57;1.10;;;11.60;99.90;;;;;;4986674;28;20203;-69
2022/11/17 08:48:17;;;;;;;2.67;0.80;;;11.70;99.90;;;;;;4981037;28;20226;-67
2022/11/17 08:50:43;;;;;;;1.70;0.70;;;11.70;99.90;;;;;;4982996;28;20182;-68
2022/11/17 08:53:19;;;;;;;1.97;0.90;;;11.70;99.90;;;;;;4983756;28;20187;-67
2022/11/17 08:55:45;;;;;;;5.93;1.20;;;11.70;99.90;;;;;;4984599;28;20189;-67
2022/11/17 08:58:11;;;;;;;2.03;1.07;;;11.80;99.90;;;;;;4996533;28;20577;-67
2022/11/17 09:00:38;;;;;;;4.70;1.00;;;11.90;99.90;;;;;;4998301;28;20221;-67
2022/11/17 09:03:08;;;;;;;3.00;1.10;;;11.80;99.90;;;;;;4979817;28;20195;-70
2022/11/17 09:05:41;;;;;;;3.50;1.17;;;11.80;99.90;;;;;;4984137;28;20213;-69
2022/11/17 09:08:07;;;;;;;2.77;1.00;;;11.80;99.90;;;;;;4976097;28;20229;-66
2022/11/17 09:10:35;;;;;;;3.23;0.87;;;11.80;99.90;;;;;;4982979;28;20187;-66
2022/11/17 09:13:00;;;;;;;2.17;0.83;;;11.80;99.90;;;;;;4980122;28;20230;-68
2022/11/17 09:15:26;;;;;;;1.70;0.83;;;11.80;99.90;;;;;;4984781;28;20544;-67
2022/11/17 09:17:51;;;;;;;2.37;1.07;;;11.80;99.90;;;;;;4985829;28;20182;-66
2022/11/17 09:20:20;;;;;;;2.10;1.00;;;11.80;99.90;;;;;;5000177;28;20229;-67
2022/11/17 09:22:46;;;;;;;1.87;1.13;;;12.00;99.90;;;;;;4985766;28;20238;-68
2022/11/17 09:25:12;;;;;;;1.90;1.10;;;12.00;99.90;;;;;;5004288;28;20178;-68
2022/11/17 09:27:37;;;;;;;6.97;1.00;;;11.90;99.90;;;;;;4993431;28;20202;-67
2022/11/17 09:30:03;;;;;;;4.43;1.10;;;12.00;99.90;;;;;;4998786;28;20183;-69
2022/11/17 09:32:29;;;;;;;2.83;1.03;;;12.10;99.90;;;;;;4993475;28;20571;-67
2022/11/17 09:34:54;;;;;;;5.33;1.20;;;12.30;99.90;;;;;;4997825;28;20179;-66
2022/11/17 09:37:21;;;;;;;4.43;1.10;;;12.30;99.90;;;;;;5005753;28;20329;-66
2022/11/17 09:39:49;;;;;;;4.77;1.30;;;12.40;99.90;;;;;;4978434;28;20179;-72
2022/11/17 09:42:17;;;;;;;3.83;1.10;;;12.40;99.90;;;;;;4985034;28;20183;-66
2022/11/17 09:44:51;;;;;;;5.63;1.20;;;12.60;99.90;;;;;;4977012;28;20183;-67
2022/11/17 09:47:54;;;;;;;2.63;1.03;;;12.60;99.90;;;;;;4992352;28;20191;-68
2022/11/17 09:50:42;;;;;;;3.77;1.30;;;12.70;99.90;;;;;;5004523;28;20175;-68
2022/11/17 09:53:35;;;;;;;3.00;1.30;;;12.70;99.90;;;;;;4981543;28;20219;-67
2022/11/17 09:56:05;;;;;;;5.13;1.33;;;12.70;99.90;;;;;;4988230;28;20210;-68
2022/11/17 09:58:43;;;;;;;4.80;1.50;;;12.70;99.90;;;;;;4992515;28;20171;-69
2022/11/17 10:01:14;;;;;;;3.73;1.20;;;12.70;99.90;;;;;;4987245;28;20198;-69
2022/11/17 10:03:43;;;;;;;2.10;1.03;;;12.70;99.90;;;;;;4994730;28;20178;-74
2022/11/17 10:06:27;;;;;;;3.43;1.30;;;12.70;99.90;;;;;;4997871;28;20191;-73
2022/11/17 10:08:59;;;;;;;5.87;1.00;;;12.60;99.90;;;;;;4982291;28;20191;-70
2022/11/17 10:11:32;;;;;;;3.70;1.13;;;12.50;99.90;;;;;;4987578;28;20208;-69
2022/11/17 10:14:13;;;;;;;2.27;1.20;;;12.30;99.90;;;;;;4992818;28;20187;-68
2022/11/17 10:16:46;;;;;;;4.23;0.90;;;12.20;99.90;;;;;;4998189;28;20206;-68
2022/11/17 10:19:29;;;;;;;7.30;1.73;;;12.10;99.90;;;;;;4990951;28;20640;-69
2022/11/17 10:22:01;;;;;;;4.20;1.10;;;12.00;99.90;;;;;;5001585;28;20649;-70
2022/11/17 10:24:46;;;;;;;3.37;1.20;;;11.80;99.90;;;;;;4989807;28;20206;-69
2022/11/17 10:27:48;;;;;;;2.47;1.30;;;11.70;99.90;;;;;;4992718;28;20612;-69
2022/11/17 10:30:13;;;;;;;1.27;0.80;;;11.70;99.90;;;;;;4976794;28;20186;-69
2022/11/17 10:32:48;;;;;;;6.07;1.37;;;11.70;99.90;;;;;;4991119;28;20219;-69
2022/11/17 10:35:26;;;;;;;3.77;1.40;;;11.70;99.90;;;;;;4986045;28;20186;-70
2022/11/17 10:37:54;;;;;;;6.57;1.40;;;11.60;99.90;;;;;;4984050;28;20199;-68
2022/11/17 10:40:28;;;;;;;2.50;1.33;;;11.60;99.90;;;;;;4965929;28;20318;-70
2022/11/17 10:43:00;;;;;;;4.40;1.20;;;11.60;99.90;;;;;;4972319;28;20210;-69
2022/11/17 10:45:35;;;;;;;1.90;1.50;;;11.60;99.90;;;;;;4964087;28;20176;-70
2022/11/17 10:48:09;;;;;;;5.07;1.57;;;11.60;99.90;;;;;;4968018;28;20342;-69
2022/11/17 10:50:35;;;;;;;5.57;1.67;;;11.60;99.90;;;;;;4957133;28;20190;-70
2022/11/17 10:53:25;;;;;;;4.37;1.50;;;11.70;99.90;;;;;;4966846;28;20223;-69
2022/11/17 10:55:56;;;;;;;6.23;2.17;;;11.80;99.90;;;;;;4970045;28;20183;-69
2022/11/17 10:58:25;;;;;;;6.77;1.40;;;11.80;99.90;;;;;;4975901;28;20210;-70
2022/11/17 11:01:00;;;;;;;3.10;1.50;;;11.90;99.90;;;;;;4971347;28;20319;-68
2022/11/17 11:03:32;;;;;;;2.77;1.60;;;12.00;99.90;;;;;;4963989;28;20186;-67
2022/11/17 11:05:57;;;;;;;6.07;1.83;;;12.20;99.90;;;;;;4970608;28;20597;-69
2022/11/17 11:08:28;;;;;;;5.33;1.60;;;12.40;99.90;;;;;;4979632;28;20338;-68
2022/11/17 11:10:57;;;;;;;6.87;2.13;;;12.70;99.90;;;;;;4986403;28;20179;-69
2022/11/17 11:13:44;;;;;;;1.83;1.30;;;13.10;99.90;;;;;;4999699;28;20200;-70
2022/11/17 11:16:10;;;;;;;4.63;1.40;;;13.40;99.90;;;;;;4999854;28;20187;-69
2022/11/17 11:18:37;;;;;;;2.57;1.37;;;13.40;99.90;;;;;;4981774;28;20187;-69
2022/11/17 11:21:23;;;;;;;6.13;1.57;;;13.40;99.90;;;;;;4986124;28;20183;-69
2022/11/17 11:24:12;;;;;;;2.80;1.40;;;13.50;99.90;;;;;;4996624;28;20225;-68
2022/11/17 11:26:43;;;;;;;4.50;1.50;;;13.40;99.90;;;;;;4994567;28;20180;-69
2022/11/17 11:29:26;;;;;;;5.83;1.40;;;13.50;99.90;;;;;;5008940;28;20186;-69
2022/11/17 11:31:55;;;;;;;3.47;1.30;;;13.40;99.90;;;;;;4978830;28;20212;-69
2022/11/17 11:34:37;;;;;;;3.20;1.30;;;13.30;99.90;;;;;;4993307;28;20213;-68
2022/11/17 11:37:10;;;;;;;2.33;1.40;;;13.40;99.90;;;;;;4989437;28;20255;-68
2022/11/17 11:39:51;;;;;;;3.60;1.30;;;13.40;99.90;;;;;;4973059;28;20184;-68
2022/11/17 11:42:39;;;;;;;2.80;1.20;;;13.30;99.90;;;;;;4992819;28;20178;-68
2022/11/17 11:45:35;;;;;;;4.40;1.37;;;13.20;99.90;;;;;;4996123;28;20178;-69
2022/11/17 11:48:10;;;;;;;3.17;1.30;;;13.20;99.90;;;;;;4979106;28;20546;-69
2022/11/17 11:50:50;;;;;;;2.33;1.17;;;13.50;99.90;;;;;;4984131;28;20677;-68
2022/11/17 11:53:31;;;;;;;3.73;1.43;;;13.70;99.90;;;;;;4982723;28;20214;-68
2022/11/17 11:56:31;;;;;;;1.87;1.20;;;14.10;99.90;;;;;;4983090;28;20278;-69
2022/11/17 11:59:14;;;;;;;3.03;1.47;;;14.00;99.90;;;;;;4972690;28;20210;-69
2022/11/17 12:02:04;;;;;;;2.80;1.20;;;14.00;99.90;;;;;;4976369;28;20214;-69
2022/11/17 12:04:38;;;;;;;2.93;1.20;;;14.10;99.90;;;;;;4975091;28;20207;-70
2022/11/17 12:07:25;;;;;;;3.00;1.00;;;13.80;99.90;;;;;;4991897;28;20270;-69
2022/11/17 12:10:01;;;;;;;5.90;1.50;;;13.70;99.90;;;;;;4980577;28;20175;-69
2022/11/17 12:12:30;;;;;;;4.87;1.27;;;13.60;99.90;;;;;;4997157;28;20262;-69
2022/11/17 12:15:18;;;;;;;3.83;1.10;;;13.40;99.90;;;;;;4995396;28;20635;-69
2022/11/17 12:18:02;;;;;;;2.70;1.40;;;13.10;99.90;;;;;;4995085;28;20179;-70
2022/11/17 12:20:37;;;;;;;4.23;1.00;;;13.20;99.90;;;;;;4993770;28;20176;-69
2022/11/17 12:23:26;;;;;;;2.17;1.50;;;13.10;99.90;;;;;;4989564;28;20303;-68
2022/11/17 12:25:55;;;;;;;7.93;3.57;;;13.20;99.90;;;;;;4973047;28;20246;-70
2022/11/17 12:28:40;;;;;;;4.73;2.67;;;13.20;99.90;;;;;;4985307;28;20190;-70
2022/11/17 12:31:42;;;;;;;6.33;1.87;;;13.30;99.90;;;;;;4982200;28;20563;-69
2022/11/17 12:34:40;;;;;;;2.33;1.20;;;13.30;99.90;;;;;;4972171;28;20171;-68
2022/11/17 12:37:14;;;;;;;4.60;1.13;;;13.30;99.90;;;;;;4974241;28;20711;-69
2022/11/17 12:39:54;;;;;;;3.03;1.13;;;13.30;99.90;;;;;;4973177;28;20187;-69
2022/11/17 12:42:20;;;;;;;1.63;1.30;;;13.10;99.90;;;;;;4972113;28;20659;-69
2022/11/17 12:44:45;;;;;;;2.83;0.97;;;13.10;99.90;;;;;;4982461;28;20187;-69
2022/11/17 12:47:20;;;;;;;3.90;1.20;;;13.00;99.90;;;;;;4992950;28;20203;-69
2022/11/17 12:50:17;;;;;;;1.33;1.10;;;12.90;99.90;;;;;;4985094;28;20823;-69
2022/11/17 12:52:57;;;;;;;1.73;1.40;;;12.90;99.90;;;;;;4972227;28;20218;-69
2022/11/17 12:55:51;;;;;;;2.33;1.30;;;12.90;99.90;;;;;;4971481;28;20167;-69
2022/11/17 12:58:49;;;;;;;2.13;1.30;;;12.90;99.90;;;;;;4973724;28;20254;-69
2022/11/17 13:01:36;;;;;;;2.30;1.20;;;13.00;99.90;;;;;;4930490;29;20193;-68
2022/11/17 13:04:17;;;;;;;3.53;1.40;;;13.10;99.90;;;;;;4935165;29;20218;-68
2022/11/17 13:06:58;;;;;;;1.30;1.10;;;13.10;99.90;;;;;;4932331;29;20307;-68
2022/11/17 13:09:35;;;;;;;3.00;1.23;;;13.40;99.90;;;;;;4917596;29;20192;-68
2022/11/17 13:12:06;;;;;;;1.13;1.03;;;13.50;99.90;;;;;;4935858;29;20224;-69
2022/11/17 13:14:33;;;;;;;1.50;1.23;;;13.50;99.90;;;;;;4937959;29;20181;-69
2022/11/17 13:17:02;;;;;;;2.17;1.20;;;13.70;99.90;;;;;;4940704;28;20307;-67
2022/11/17 13:19:38;;;;;;;3.83;1.07;;;13.60;99.90;;;;;;4939050;28;20252;-67
2022/11/17 13:22:13;;;;;;;2.13;0.90;;;13.60;99.90;;;;;;4945746;29;20256;-67
2022/11/17 13:24:41;;;;;;;1.60;1.30;;;13.50;99.90;;;;;;4947010;28;20196;-69
2022/11/17 13:27:24;;;;;;;3.03;1.50;;;13.40;99.90;;;;;;4953321;28;20189;-68
2022/11/17 13:30:21;;;;;;;0.80;0.80;;;13.30;99.90;;;;;;4940025;28;20234;-68
2022/11/17 13:32:47;;;;;;;1.73;0.93;;;13.40;99.90;;;;;;4946254;28;20225;-67
2022/11/17 13:35:30;;;;;;;3.93;1.30;;;13.40;99.90;;;;;;4945436;29;20181;-69
2022/11/17 13:38:19;;;;;;;1.83;1.27;;;13.40;99.90;;;;;;4942913;29;20215;-69
2022/11/17 13:40:47;;;;;;;2.00;1.13;;;13.40;99.90;;;;;;4969605;28;20830;-67